Aérodrome :
LOGIN :

S'inscrire | Disclaimer

   EN    FR    IT 

 










Légende :    VFR   VFR Marginal   IFR   IFR Intensif   IFR Très Intensif
Visi : 
Plafond : 
>= 8 km
>= 3000ft
5 à 8 km
1000 à 3000 ft
1500m à 5 km
500 à 1000 ft
800 à 1500m
200 à 500 ft
< 800m
< 200 ft
Symboles :   Orages  Brouillard  Fortes neiges  Fortes précipitations  Vent > 20 kt
SIGMETs :   Divers  Orages  Givrage  Turbulence  Onde Orograph.  Cendres Volcan.







- Altitude de l'aérodrome : 357 ft
- Code IATA : TUF
- Voir les cartes d'approche


LFOT - Tours

DERNIER METAR :
  • 011730Z AUTO 23017KT 6000 -RA OVC007/// ///TCU 11/10 Q1006 TEMPO 22015G30KT 2500 -RA

METARs EXPIRÉS :
  • 011700Z AUTO 23016KT 5000 -RA BR OVC006 11/11 Q1006 TEMPO 22015G25KT 2500 RA
  • 011630Z AUTO 22016KT 200V260 2800 -RA BR OVC006 11/11 Q1006 TEMPO 22015G25KT RA
  • 011600Z AUTO 23015KT 3300 -DZ BR OVC007 11/10 Q1006 TEMPO 22015G25KT 2500 RA
  • 011530Z AUTO 23016G26KT 4700 -RADZ BR BKN008 OVC013 12/10 Q1006 TEMPO 2500 RA
  • 011500Z AUTO 23016KT 200V260 9999 -RA BKN010 OVC014 12/10 Q1006 TEMPO 22015G25KT 2500 RA

TAF TAF LFOT
Valide du 01 à 18h jusqu'au 02 à 18h UTC


011700Z 0118/0218 23015KT 9999 BKN011
PROB40
TEMPO 0118/0121 22015G30KT 2500 -RA OVC005 SCT015TCU
BECMG 0121/0124 SCT020
PROB30
TEMPO 0204/0209 4000 BR BKN004
BECMG 0210/0212 18005KT
Pas de NOTAMs connus pour ce terrain.



MET'MAP, la Météo Aéronautique d'un coup d'oeil ! - Copyright ORBIFLY Décembre 2007 - Disclaimer

ORBIFLY MET'MAP TEAM :

Programmation & Développement : Alexandra Zaïnal
Conception & Développement : Baudouin d'Aumeries
Co-Programmation & Développement : Marc-Olivier Méhu
Soutien technique & logistique : Manuel Goepfert

Contact : metmap@orbifly.com




SOURCES & CREDITS :

   NOAA